sensor_id;sensor_type;location;lat;lon;timestamp;P1;durP1;ratioP1;P2;durP2;ratioP2
10142;SDS011;5112;54.088;13.446;2024-03-07T00:07:39;12.03;;;9.03;;
10142;SDS011;5112;54.088;13.446;2024-03-07T00:17:41;11.77;;;8.60;;
10142;SDS011;5112;54.088;13.446;2024-03-07T00:27:44;13.40;;;9.57;;
10142;SDS011;5112;54.088;13.446;2024-03-07T00:37:46;14.93;;;10.10;;
10142;SDS011;5112;54.088;13.446;2024-03-07T00:47:48;18.33;;;10.40;;
10142;SDS011;5112;54.088;13.446;2024-03-07T00:57:50;15.37;;;10.67;;
10142;SDS011;5112;54.088;13.446;2024-03-07T01:07:53;13.97;;;10.47;;
10142;SDS011;5112;54.088;13.446;2024-03-07T01:17:55;15.80;;;11.17;;
10142;SDS011;5112;54.088;13.446;2024-03-07T01:27:58;15.90;;;11.87;;
10142;SDS011;5112;54.088;13.446;2024-03-07T01:38:01;18.73;;;13.03;;
10142;SDS011;5112;54.088;13.446;2024-03-07T01:48:05;18.70;;;12.00;;
10142;SDS011;5112;54.088;13.446;2024-03-07T01:58:08;16.50;;;11.73;;
10142;SDS011;5112;54.088;13.446;2024-03-07T02:08:12;20.03;;;13.80;;
10142;SDS011;5112;54.088;13.446;2024-03-07T02:18:14;21.40;;;13.87;;
10142;SDS011;5112;54.088;13.446;2024-03-07T02:28:18;18.13;;;13.13;;
10142;SDS011;5112;54.088;13.446;2024-03-07T02:38:19;22.67;;;12.67;;
10142;SDS011;5112;54.088;13.446;2024-03-07T02:48:22;18.80;;;13.23;;
10142;SDS011;5112;54.088;13.446;2024-03-07T02:58:24;19.07;;;12.70;;
10142;SDS011;5112;54.088;13.446;2024-03-07T03:08:27;19.93;;;13.57;;
10142;SDS011;5112;54.088;13.446;2024-03-07T03:18:28;17.53;;;12.80;;
10142;SDS011;5112;54.088;13.446;2024-03-07T03:28:32;21.77;;;13.00;;
10142;SDS011;5112;54.088;13.446;2024-03-07T03:38:34;19.27;;;13.43;;
10142;SDS011;5112;54.088;13.446;2024-03-07T03:48:37;19.90;;;13.50;;
10142;SDS011;5112;54.088;13.446;2024-03-07T03:58:39;19.67;;;13.97;;
10142;SDS011;5112;54.088;13.446;2024-03-07T04:08:42;21.83;;;13.40;;
10142;SDS011;5112;54.088;13.446;2024-03-07T04:18:44;18.63;;;13.27;;
10142;SDS011;5112;54.088;13.446;2024-03-07T04:28:47;19.37;;;12.77;;
10142;SDS011;5112;54.088;13.446;2024-03-07T04:38:50;18.00;;;12.90;;
10142;SDS011;5112;54.088;13.446;2024-03-07T04:48:53;18.20;;;12.57;;
10142;SDS011;5112;54.088;13.446;2024-03-07T04:58:55;16.63;;;11.60;;
10142;SDS011;5112;54.088;13.446;2024-03-07T05:08:58;15.23;;;11.87;;
10142;SDS011;5112;54.088;13.446;2024-03-07T05:18:59;18.23;;;12.07;;
10142;SDS011;5112;54.088;13.446;2024-03-07T05:29:03;17.43;;;12.27;;
10142;SDS011;5112;54.088;13.446;2024-03-07T05:39:07;16.60;;;11.57;;
10142;SDS011;5112;54.088;13.446;2024-03-07T05:49:12;20.67;;;13.13;;
10142;SDS011;5112;54.088;13.446;2024-03-07T05:59:14;17.70;;;12.10;;
10142;SDS011;5112;54.088;13.446;2024-03-07T06:09:18;19.10;;;12.27;;
10142;SDS011;5112;54.088;13.446;2024-03-07T06:19:21;19.97;;;12.33;;
10142;SDS011;5112;54.088;13.446;2024-03-07T06:29:24;19.47;;;11.97;;
10142;SDS011;5112;54.088;13.446;2024-03-07T06:39:26;18.17;;;11.87;;
10142;SDS011;5112;54.088;13.446;2024-03-07T06:49:29;17.50;;;12.20;;
10142;SDS011;5112;54.088;13.446;2024-03-07T06:59:31;18.70;;;12.80;;
10142;SDS011;5112;54.088;13.446;2024-03-07T07:09:35;20.53;;;14.70;;
10142;SDS011;5112;54.088;13.446;2024-03-07T07:19:37;21.33;;;13.83;;
10142;SDS011;5112;54.088;13.446;2024-03-07T07:29:41;21.40;;;14.23;;
10142;SDS011;5112;54.088;13.446;2024-03-07T07:39:42;20.07;;;13.20;;
10142;SDS011;5112;54.088;13.446;2024-03-07T07:49:45;18.87;;;13.33;;
10142;SDS011;5112;54.088;13.446;2024-03-07T07:59:48;17.53;;;12.27;;
10142;SDS011;5112;54.088;13.446;2024-03-07T08:09:51;17.97;;;13.47;;
10142;SDS011;5112;54.088;13.446;2024-03-07T08:19:52;16.43;;;12.27;;
10142;SDS011;5112;54.088;13.446;2024-03-07T08:29:55;16.67;;;13.00;;
10142;SDS011;5112;54.088;13.446;2024-03-07T08:39:57;15.70;;;12.80;;
10142;SDS011;5112;54.088;13.446;2024-03-07T08:50:00;13.77;;;11.43;;
10142;SDS011;5112;54.088;13.446;2024-03-07T09:00:06;14.43;;;10.90;;
10142;SDS011;5112;54.088;13.446;2024-03-07T09:10:12;12.20;;;10.93;;
10142;SDS011;5112;54.088;13.446;2024-03-07T09:20:14;16.77;;;11.47;;
10142;SDS011;5112;54.088;13.446;2024-03-07T09:30:18;13.00;;;10.70;;
10142;SDS011;5112;54.088;13.446;2024-03-07T09:40:24;15.00;;;11.60;;
10142;SDS011;5112;54.088;13.446;2024-03-07T09:50:28;13.23;;;10.67;;
10142;SDS011;5112;54.088;13.446;2024-03-07T10:00:31;14.27;;;11.70;;
10142;SDS011;5112;54.088;13.446;2024-03-07T10:10:34;14.00;;;11.20;;
10142;SDS011;5112;54.088;13.446;2024-03-07T10:20:36;15.20;;;10.87;;
10142;SDS011;5112;54.088;13.446;2024-03-07T10:30:41;15.23;;;11.07;;
10142;SDS011;5112;54.088;13.446;2024-03-07T10:40:45;12.57;;;11.03;;
10142;SDS011;5112;54.088;13.446;2024-03-07T10:50:54;12.80;;;10.90;;
10142;SDS011;5112;54.088;13.446;2024-03-07T11:01:10;10.50;;;8.90;;
10142;SDS011;5112;54.088;13.446;2024-03-07T11:11:15;11.17;;;9.17;;
10142;SDS011;5112;54.088;13.446;2024-03-07T11:31:44;12.67;;;10.23;;
10142;SDS011;5112;54.088;13.446;2024-03-07T11:41:46;11.40;;;10.23;;
10142;SDS011;5112;54.088;13.446;2024-03-07T11:51:49;11.47;;;9.57;;
10142;SDS011;5112;54.088;13.446;2024-03-07T12:01:51;11.30;;;9.70;;
10142;SDS011;5112;54.088;13.446;2024-03-07T12:11:59;12.30;;;10.13;;
10142;SDS011;5112;54.088;13.446;2024-03-07T12:22:02;13.87;;;10.40;;
10142;SDS011;5112;54.088;13.446;2024-03-07T12:32:06;9.63;;;8.63;;
10142;SDS011;5112;54.088;13.446;2024-03-07T12:42:08;10.30;;;8.87;;
10142;SDS011;5112;54.088;13.446;2024-03-07T12:52:15;11.27;;;9.13;;
10142;SDS011;5112;54.088;13.446;2024-03-07T13:02:17;15.37;;;9.43;;
10142;SDS011;5112;54.088;13.446;2024-03-07T13:12:20;12.80;;;9.87;;
10142;SDS011;5112;54.088;13.446;2024-03-07T13:22:21;10.03;;;8.93;;
10142;SDS011;5112;54.088;13.446;2024-03-07T13:32:25;12.77;;;9.87;;
10142;SDS011;5112;54.088;13.446;2024-03-07T13:42:28;12.90;;;10.17;;
10142;SDS011;5112;54.088;13.446;2024-03-07T13:52:31;12.83;;;10.37;;
10142;SDS011;5112;54.088;13.446;2024-03-07T14:02:54;15.07;;;10.97;;
10142;SDS011;5112;54.088;13.446;2024-03-07T14:13:21;13.23;;;11.03;;
10142;SDS011;5112;54.088;13.446;2024-03-07T14:23:41;14.40;;;9.87;;
10142;SDS011;5112;54.088;13.446;2024-03-07T14:34:04;12.63;;;9.63;;
10142;SDS011;5112;54.088;13.446;2024-03-07T14:44:13;12.17;;;9.40;;
10142;SDS011;5112;54.088;13.446;2024-03-07T14:54:17;10.80;;;8.97;;
10142;SDS011;5112;54.088;13.446;2024-03-07T15:04:19;12.57;;;9.40;;
10142;SDS011;5112;54.088;13.446;2024-03-07T15:14:23;10.63;;;8.40;;
10142;SDS011;5112;54.088;13.446;2024-03-07T15:24:25;12.20;;;7.90;;
10142;SDS011;5112;54.088;13.446;2024-03-07T15:34:28;11.57;;;8.00;;
10142;SDS011;5112;54.088;13.446;2024-03-07T15:44:36;12.53;;;7.87;;
10142;SDS011;5112;54.088;13.446;2024-03-07T15:54:44;8.60;;;6.50;;
10142;SDS011;5112;54.088;13.446;2024-03-07T16:04:46;9.80;;;6.50;;
10142;SDS011;5112;54.088;13.446;2024-03-07T16:14:49;6.60;;;5.90;;
10142;SDS011;5112;54.088;13.446;2024-03-07T16:24:53;6.50;;;5.43;;
10142;SDS011;5112;54.088;13.446;2024-03-07T16:34:56;6.30;;;5.30;;
10142;SDS011;5112;54.088;13.446;2024-03-07T16:44:58;8.13;;;5.47;;
10142;SDS011;5112;54.088;13.446;2024-03-07T16:55:03;6.67;;;5.20;;
10142;SDS011;5112;54.088;13.446;2024-03-07T17:05:08;7.70;;;5.70;;
10142;SDS011;5112;54.088;13.446;2024-03-07T17:15:16;7.73;;;6.30;;
10142;SDS011;5112;54.088;13.446;2024-03-07T17:25:19;7.00;;;6.30;;
10142;SDS011;5112;54.088;13.446;2024-03-07T17:35:23;6.63;;;6.03;;
10142;SDS011;5112;54.088;13.446;2024-03-07T17:45:26;7.13;;;6.43;;
10142;SDS011;5112;54.088;13.446;2024-03-07T17:55:30;7.90;;;6.60;;
10142;SDS011;5112;54.088;13.446;2024-03-07T18:05:32;6.60;;;5.53;;
10142;SDS011;5112;54.088;13.446;2024-03-07T18:15:37;7.38;;;5.85;;
10142;SDS011;5112;54.088;13.446;2024-03-07T18:25:39;7.47;;;6.07;;
10142;SDS011;5112;54.088;13.446;2024-03-07T18:35:42;6.03;;;4.97;;
10142;SDS011;5112;54.088;13.446;2024-03-07T18:45:45;6.83;;;5.27;;
10142;SDS011;5112;54.088;13.446;2024-03-07T18:55:52;7.97;;;5.80;;
10142;SDS011;5112;54.088;13.446;2024-03-07T19:05:56;7.10;;;6.30;;
10142;SDS011;5112;54.088;13.446;2024-03-07T19:16:00;7.20;;;6.50;;
10142;SDS011;5112;54.088;13.446;2024-03-07T19:26:03;7.63;;;6.37;;
10142;SDS011;5112;54.088;13.446;2024-03-07T19:36:11;7.23;;;5.60;;
10142;SDS011;5112;54.088;13.446;2024-03-07T19:46:14;8.37;;;7.17;;
10142;SDS011;5112;54.088;13.446;2024-03-07T19:56:19;10.03;;;7.37;;
10142;SDS011;5112;54.088;13.446;2024-03-07T20:06:21;11.13;;;7.53;;
10142;SDS011;5112;54.088;13.446;2024-03-07T20:16:24;8.07;;;6.87;;
10142;SDS011;5112;54.088;13.446;2024-03-07T20:26:26;7.83;;;7.00;;
10142;SDS011;5112;54.088;13.446;2024-03-07T20:36:33;9.70;;;8.50;;
10142;SDS011;5112;54.088;13.446;2024-03-07T20:46:36;9.50;;;6.87;;
10142;SDS011;5112;54.088;13.446;2024-03-07T20:56:39;8.23;;;6.70;;
10142;SDS011;5112;54.088;13.446;2024-03-07T21:06:48;6.93;;;6.00;;
10142;SDS011;5112;54.088;13.446;2024-03-07T21:16:52;9.60;;;8.30;;
10142;SDS011;5112;54.088;13.446;2024-03-07T21:26:54;8.23;;;6.00;;
10142;SDS011;5112;54.088;13.446;2024-03-07T21:36:57;8.93;;;5.80;;
10142;SDS011;5112;54.088;13.446;2024-03-07T21:46:59;7.57;;;5.60;;
10142;SDS011;5112;54.088;13.446;2024-03-07T21:57:02;7.60;;;5.23;;
10142;SDS011;5112;54.088;13.446;2024-03-07T22:07:04;10.33;;;6.20;;
10142;SDS011;5112;54.088;13.446;2024-03-07T22:17:07;7.80;;;6.10;;
10142;SDS011;5112;54.088;13.446;2024-03-07T22:27:10;6.67;;;5.67;;
10142;SDS011;5112;54.088;13.446;2024-03-07T22:37:13;6.93;;;5.43;;
10142;SDS011;5112;54.088;13.446;2024-03-07T22:47:15;6.90;;;5.60;;
10142;SDS011;5112;54.088;13.446;2024-03-07T22:57:20;8.43;;;5.93;;
10142;SDS011;5112;54.088;13.446;2024-03-07T23:07:22;8.87;;;5.93;;
10142;SDS011;5112;54.088;13.446;2024-03-07T23:17:25;7.50;;;5.73;;
10142;SDS011;5112;54.088;13.446;2024-03-07T23:27:26;8.73;;;7.03;;
10142;SDS011;5112;54.088;13.446;2024-03-07T23:37:29;11.60;;;7.17;;
10142;SDS011;5112;54.088;13.446;2024-03-07T23:47:31;9.03;;;6.43;;
10142;SDS011;5112;54.088;13.446;2024-03-07T23:57:34;9.80;;;6.27;;
